Terminal Aerodrome Forecast
Issued by NWS Charleston, SC

Home | Current Version | Previous Version | Text Only | Print | Product List | Glossary On
Versions: 1 2 3 4 5 6 7 8 9 10 11 12 13 14 15 16 17 18 19 20 21 22 23 24 25
000
FTUS42 KCHS 182324
TAFCHS
TAF
KCHS 182324Z 1900/1924 13005KT P6SM VCSH SCT015 BKN060
     FM190300 VRB03KT P6SM SCT006 BKN014
     FM190900 VRB03KT 4SM BR SCT004 BKN008
     FM191300 15006KT P6SM SCT008 BKN015
     FM191500 17008KT 4SM -RA BR SCT015 BKN030
     FM191800 18010KT P6SM SCT025 BKN040=

USA.gov is the U.S. government's official web portal to all federal, state and local government web resources and services.